createdAt,value
2023-04-18T00:03:57.100Z,8.11
2023-04-18T00:09:00.864Z,8.05
2023-04-18T00:14:04.750Z,7.97
2023-04-18T00:19:09.401Z,7.91
2023-04-18T00:24:13.503Z,7.86
2023-04-18T00:29:17.377Z,7.79
2023-04-18T00:34:21.167Z,7.74
2023-04-18T00:39:24.859Z,7.70
2023-04-18T00:59:12.253Z,7.59
2023-04-18T01:09:45.718Z,7.57
2023-04-18T01:15:15.058Z,7.57
2023-04-18T01:20:49.682Z,7.56
2023-04-18T01:25:53.390Z,7.50
2023-04-18T01:34:55.094Z,7.50
2023-04-18T01:39:58.790Z,7.52
2023-04-18T01:59:32.576Z,7.53
2023-04-18T02:23:53.634Z,7.56
2023-04-18T02:29:48.393Z,7.55
2023-04-18T02:34:52.024Z,7.56
2023-04-18T02:39:55.917Z,7.55
2023-04-18T02:44:59.615Z,7.53
2023-04-18T02:50:04.620Z,7.53
2023-04-18T02:55:08.706Z,7.52
2023-04-18T03:00:37.633Z,7.51
2023-04-18T03:05:41.457Z,7.55
2023-04-18T03:10:45.185Z,7.55
2023-04-18T03:24:27.276Z,7.54
2023-04-18T03:29:31.475Z,7.52
2023-04-18T03:53:44.423Z,7.47
2023-04-18T03:59:38.938Z,7.44
2023-04-18T04:04:58.231Z,7.40
2023-04-18T04:10:02.302Z,7.41
2023-04-18T04:15:07.045Z,7.44
2023-04-18T04:20:11.661Z,7.51
2023-04-18T04:25:17.693Z,7.60
2023-04-18T04:30:22.162Z,7.66
2023-04-18T04:35:26.872Z,7.71
2023-04-18T04:40:30.887Z,7.78
2023-04-18T04:45:35.048Z,7.87
2023-04-18T04:50:42.726Z,7.97
2023-04-18T04:55:48.499Z,8.07
2023-04-18T05:00:53.405Z,8.13
2023-04-18T05:13:18.734Z,8.31
2023-04-18T05:18:22.720Z,8.34
2023-04-18T05:30:48.394Z,8.55
2023-04-18T05:36:32.732Z,8.53
2023-04-18T05:41:36.667Z,8.39
2023-04-18T05:46:40.795Z,8.29
2023-04-18T05:53:10.567Z,8.39
2023-04-18T05:58:26.658Z,8.53
2023-04-18T06:18:39.451Z,8.98
2023-04-18T06:23:49.470Z,9.31
2023-04-18T06:29:18.583Z,9.61
2023-04-18T06:34:22.105Z,10.07
2023-04-18T06:41:07.738Z,10.63
2023-04-18T06:54:11.873Z,11.89
2023-04-18T07:01:12.874Z,12.36
2023-04-18T07:06:17.641Z,12.90
2023-04-18T07:20:13.062Z,13.75
2023-04-18T07:25:18.703Z,14.19
2023-04-18T07:30:22.630Z,14.57
2023-04-18T07:36:16.432Z,14.66
2023-04-18T07:48:28.683Z,15.09
2023-04-18T07:54:25.667Z,15.25
2023-04-18T08:00:20.589Z,15.40
2023-04-18T08:06:55.953Z,15.74
2023-04-18T08:13:18.342Z,16.27
2023-04-18T08:26:51.006Z,17.13
2023-04-18T08:32:24.632Z,17.14
2023-04-18T08:44:38.361Z,17.66
2023-04-18T08:49:44.260Z,18.03
2023-04-18T08:54:49.569Z,18.24
2023-04-18T08:59:54.480Z,18.25
2023-04-18T09:04:58.256Z,18.28
2023-04-18T09:10:34.869Z,18.61
2023-04-18T09:15:38.868Z,18.66
2023-04-18T09:20:43.160Z,18.80
2023-04-18T09:26:42.539Z,18.95
2023-04-18T09:47:56.199Z,19.89
2023-04-18T09:53:26.218Z,20.10
2023-04-18T09:58:34.786Z,20.36
2023-04-18T10:11:11.124Z,20.70
2023-04-18T10:16:17.256Z,21.33
2023-04-18T10:22:12.845Z,21.53
2023-04-18T10:28:39.124Z,20.72
2023-04-18T10:40:51.397Z,20.47
2023-04-18T10:46:31.608Z,20.41
2023-04-18T10:51:36.537Z,20.82
2023-04-18T10:56:40.956Z,21.44
2023-04-18T11:02:30.658Z,21.76
2023-04-18T11:15:40.539Z,21.46
2023-04-18T11:28:07.014Z,20.33
2023-04-18T11:34:33.328Z,20.66
2023-04-18T11:40:59.203Z,21.22
2023-04-18T11:46:03.114Z,21.98
2023-04-18T11:51:57.989Z,21.91
2023-04-18T11:57:02.983Z,21.35
2023-04-18T12:09:27.156Z,20.12
2023-04-18T12:21:20.349Z,19.62
2023-04-18T12:27:54.009Z,19.61
2023-04-18T12:33:22.848Z,19.31
2023-04-18T12:38:27.445Z,19.12
2023-04-18T12:44:48.516Z,18.80
2023-04-18T12:49:52.976Z,18.95
2023-04-18T12:55:26.366Z,18.83
2023-04-18T13:00:34.165Z,19.22
2023-04-18T13:05:40.795Z,19.76
2023-04-18T13:10:46.070Z,19.78
2023-04-18T13:15:51.937Z,19.09
2023-04-18T13:20:56.949Z,18.36
2023-04-18T13:26:02.695Z,17.89
2023-04-18T13:31:07.509Z,17.64
2023-04-18T13:36:11.939Z,17.31
2023-04-18T13:41:21.017Z,17.12
2023-04-18T13:46:26.925Z,16.89
2023-04-18T13:52:21.497Z,16.75
2023-04-18T13:57:52.464Z,16.48
2023-04-18T14:02:58.152Z,16.36
2023-04-18T14:08:07.041Z,16.22
2023-04-18T14:13:47.130Z,16.05
2023-04-18T14:19:42.043Z,16.04
2023-04-18T14:25:47.629Z,16.14
2023-04-18T14:30:52.778Z,16.27
2023-04-18T14:35:57.119Z,16.40
2023-04-18T14:41:02.273Z,16.07
2023-04-18T14:54:56.678Z,15.31
2023-04-18T15:12:01.582Z,15.05
2023-04-18T15:24:33.954Z,14.62
2023-04-18T15:45:30.614Z,14.11
2023-04-18T15:50:34.451Z,14.01
2023-04-18T16:03:47.396Z,13.89
2023-04-18T16:08:51.449Z,13.85
2023-04-18T16:13:56.524Z,13.81
2023-04-18T16:19:01.784Z,13.76
2023-04-18T16:24:06.478Z,13.71
2023-04-18T16:29:12.420Z,13.66
2023-04-18T16:34:18.132Z,13.65
2023-04-18T16:39:24.261Z,13.62
2023-04-18T16:44:31.170Z,13.62
2023-04-18T16:49:36.555Z,13.59
2023-04-18T16:54:41.908Z,13.54
2023-04-18T16:59:46.202Z,13.50
2023-04-18T17:12:18.322Z,13.40
2023-04-18T17:17:24.132Z,13.34
2023-04-18T17:22:28.274Z,13.26
2023-04-18T17:27:35.033Z,13.17
2023-04-18T17:32:46.322Z,13.05
2023-04-18T17:37:53.232Z,12.89
2023-04-18T17:43:15.317Z,12.79
2023-04-18T17:48:21.738Z,12.64
2023-04-18T17:53:27.567Z,12.47
2023-04-18T17:58:32.418Z,12.34
2023-04-18T18:03:39.533Z,12.23
2023-04-18T18:09:13.288Z,12.11
2023-04-18T18:14:17.925Z,11.99
2023-04-18T18:34:22.446Z,11.56
2023-04-18T18:39:53.016Z,11.49
2023-04-18T18:44:57.008Z,11.39
2023-04-18T18:51:28.543Z,11.26
2023-04-18T18:56:32.898Z,11.11
2023-04-18T19:10:06.793Z,10.96
2023-04-18T19:15:12.141Z,10.93
2023-04-18T19:21:06.215Z,10.90
2023-04-18T19:27:31.516Z,10.84
2023-04-18T19:40:28.636Z,10.47
2023-04-18T20:00:55.757Z,9.79
2023-04-18T20:13:03.614Z,9.37
2023-04-18T20:19:47.863Z,9.19
2023-04-18T20:42:19.661Z,8.33
2023-04-18T20:48:14.054Z,8.20
2023-04-18T20:54:02.662Z,8.07
2023-04-18T20:59:08.845Z,7.92
2023-04-18T21:12:28.033Z,7.70
2023-04-18T21:26:01.926Z,7.38
2023-04-18T21:31:06.209Z,7.32
2023-04-18T21:43:28.480Z,7.20
2023-04-18T21:48:32.199Z,7.15
2023-04-18T21:55:12.914Z,7.11
2023-04-18T22:00:17.451Z,6.99
2023-04-18T22:05:21.593Z,6.88
2023-04-18T22:10:25.806Z,6.78
2023-04-18T22:15:30.507Z,6.70
2023-04-18T22:21:00.147Z,6.63
2023-04-18T22:26:04.014Z,6.63
2023-04-18T22:31:07.955Z,6.65
2023-04-18T22:36:11.810Z,6.63
2023-04-18T22:41:15.657Z,6.61
2023-04-18T22:46:19.799Z,6.49
2023-04-18T22:51:50.259Z,6.42
2023-04-18T22:57:50.416Z,6.38
2023-04-18T23:03:19.724Z,6.35
2023-04-18T23:09:03.700Z,6.30
2023-04-18T23:29:08.435Z,6.14
2023-04-18T23:51:55.869Z,6.03
2023-04-18T23:56:59.831Z,5.97
